Yonago, Japan

4:25 PM JST on August 02, 2014 (GMT +0900)
Miho Aero (RJOH) Elev 20 ft | 35.49 °N, 133.24 °E | Change Station

Current weather conditions updated 25 minutes ago

Mostly Cloudy
Mostly Cloudy
88 °F
Feels Like 94 °F
N
9
Wind Variable Wind from SSE

Tomorrow is forecast to be Much Cooler than today. Showers and thunderstorms.

Today
High -- | Low -- °F
--% Chance of Precip.
Yesterday
High -- | Low -- °F
Precip. -- in
5:15 AM 7:09 PM
Waxing Crescent, 33% visible
Pressure 29.74 in
Visibility 6.2 miles
Clouds Few 2500 ft
Scattered Clouds 11000 ft
Mostly Cloudy 15000 ft
Heat Index 94 °F
Dew Point 72 °F
Humidity 58%
Rainfall 0.00 in
Snow Depth Not available.
UV 3 out of 12
Pollen Not available.
Air Quality Not available.
Flu Activity Not available.
METAR RJOH 020700Z 16008KT 9999 FEW025 SCT110 BKN150 31/22 Q1007

More Conditions Fewer Conditions

Pressure 29.74 in
Visibility 6.2 miles
Clouds Few 2500 ft
Scattered Clouds 11000 ft
Mostly Cloudy 15000 ft
Heat Index 94 °F
Dew Point 72 °F
Humidity 58%
Rainfall 0.00 in
Snow Depth Not available.
UV 3 out of 12
Pollen Not available.
Air Quality Not available.
Flu Activity Not available.
METAR RJOH 020700Z 16008KT 9999 FEW025 SCT110 BKN150 31/22 Q1007

More Conditions Fewer Conditions

10-Day Weather Forecast

Almanac

Astronomy

Aug. 02, 2014 Rise Set
Actual Time 5:15 AM JST 7:09 PM JST
Civil Twilight 4:47 AM JST 7:37 PM JST
Nautical Twilight 4:13 AM JST 8:11 PM JST
Astronomical Twilight 3:37 AM JST 8:47 PM JST
Moon 10:47 AM JST 10:21 PM JST
Length of Visible Light 14h 50m
Length of Day
13h 54m
Tomorrow will be 1m 41s shorter.
Waxing Crescent, 33% of the Moon is Illuminated
Today
Waxing Crescent
Aug 3
First Quarter
Aug 10
Full
Aug 17
Last Quarter
Aug 25
New

Yesterday's Extremes

Country Highs Country Lows

Community

WunderPhotos

Upload Photos

1,739,830 photos uploaded!

Nearby

Snow Depth

Not available.

Earthquake Activity

City Distance Mag. Time & Date
No recent earthquake activity has been reported nearby.
Minimum magnitude displayed is 2.5.

Coastal Water Temperatures

Place Temperature
No Stations Reporting

Nearby Weather Stations

There are no personal weather stations in this area.